sensor_id;sensor_type;location;lat;lon;timestamp;P1;durP1;ratioP1;P2;durP2;ratioP2
10216;SDS011;5152;59.674;16.838;2024-03-06T00:01:57;5.27;;;3.60;;
10216;SDS011;5152;59.674;16.838;2024-03-06T00:04:23;3.93;;;2.97;;
10216;SDS011;5152;59.674;16.838;2024-03-06T00:06:51;9.43;;;4.10;;
10216;SDS011;5152;59.674;16.838;2024-03-06T00:09:20;6.17;;;3.03;;
10216;SDS011;5152;59.674;16.838;2024-03-06T00:11:47;6.87;;;4.23;;
10216;SDS011;5152;59.674;16.838;2024-03-06T00:14:16;5.17;;;3.70;;
10216;SDS011;5152;59.674;16.838;2024-03-06T00:16:44;5.73;;;3.30;;
10216;SDS011;5152;59.674;16.838;2024-03-06T00:19:11;3.73;;;2.53;;
10216;SDS011;5152;59.674;16.838;2024-03-06T00:21:38;5.03;;;3.90;;
10216;SDS011;5152;59.674;16.838;2024-03-06T00:24:05;6.30;;;3.73;;
10216;SDS011;5152;59.674;16.838;2024-03-06T00:26:32;7.33;;;3.37;;
10216;SDS011;5152;59.674;16.838;2024-03-06T00:28:59;7.80;;;4.23;;
10216;SDS011;5152;59.674;16.838;2024-03-06T00:31:26;5.93;;;4.03;;
10216;SDS011;5152;59.674;16.838;2024-03-06T00:33:54;3.10;;;2.20;;
10216;SDS011;5152;59.674;16.838;2024-03-06T00:36:21;8.93;;;3.77;;
10216;SDS011;5152;59.674;16.838;2024-03-06T00:38:48;3.83;;;3.10;;
10216;SDS011;5152;59.674;16.838;2024-03-06T00:41:15;9.53;;;3.63;;
10216;SDS011;5152;59.674;16.838;2024-03-06T00:43:42;5.43;;;3.43;;
10216;SDS011;5152;59.674;16.838;2024-03-06T00:46:09;4.63;;;2.73;;
10216;SDS011;5152;59.674;16.838;2024-03-06T00:48:35;5.33;;;4.00;;
10216;SDS011;5152;59.674;16.838;2024-03-06T00:51:05;9.03;;;4.17;;
10216;SDS011;5152;59.674;16.838;2024-03-06T00:53:32;6.80;;;4.57;;
10216;SDS011;5152;59.674;16.838;2024-03-06T00:55:59;6.63;;;4.20;;
10216;SDS011;5152;59.674;16.838;2024-03-06T00:58:26;4.73;;;3.23;;
10216;SDS011;5152;59.674;16.838;2024-03-06T01:00:53;9.27;;;4.93;;
10216;SDS011;5152;59.674;16.838;2024-03-06T01:03:20;8.73;;;4.13;;
10216;SDS011;5152;59.674;16.838;2024-03-06T01:05:47;7.10;;;3.87;;
10216;SDS011;5152;59.674;16.838;2024-03-06T01:08:15;8.60;;;4.10;;
10216;SDS011;5152;59.674;16.838;2024-03-06T01:10:42;7.20;;;4.17;;
10216;SDS011;5152;59.674;16.838;2024-03-06T01:13:09;5.73;;;3.50;;
10216;SDS011;5152;59.674;16.838;2024-03-06T01:15:37;13.23;;;5.07;;
10216;SDS011;5152;59.674;16.838;2024-03-06T01:18:04;12.43;;;6.73;;
10216;SDS011;5152;59.674;16.838;2024-03-06T01:20:31;8.40;;;4.60;;
10216;SDS011;5152;59.674;16.838;2024-03-06T01:22:58;10.03;;;5.47;;
10216;SDS011;5152;59.674;16.838;2024-03-06T01:25:26;4.87;;;3.90;;
10216;SDS011;5152;59.674;16.838;2024-03-06T01:27:53;9.83;;;5.13;;
10216;SDS011;5152;59.674;16.838;2024-03-06T01:30:20;10.80;;;4.30;;
10216;SDS011;5152;59.674;16.838;2024-03-06T01:32:46;6.30;;;4.17;;
10216;SDS011;5152;59.674;16.838;2024-03-06T01:35:13;5.47;;;3.97;;
10216;SDS011;5152;59.674;16.838;2024-03-06T01:37:40;5.57;;;4.00;;
10216;SDS011;5152;59.674;16.838;2024-03-06T01:40:07;5.73;;;3.83;;
10216;SDS011;5152;59.674;16.838;2024-03-06T01:42:36;7.20;;;4.90;;
10216;SDS011;5152;59.674;16.838;2024-03-06T01:45:04;5.97;;;3.57;;
10216;SDS011;5152;59.674;16.838;2024-03-06T01:47:32;8.77;;;4.40;;
10216;SDS011;5152;59.674;16.838;2024-03-06T01:49:59;7.03;;;4.23;;
10216;SDS011;5152;59.674;16.838;2024-03-06T01:52:26;7.87;;;4.50;;
10216;SDS011;5152;59.674;16.838;2024-03-06T01:54:53;6.40;;;2.77;;
10216;SDS011;5152;59.674;16.838;2024-03-06T01:57:21;6.93;;;4.80;;
10216;SDS011;5152;59.674;16.838;2024-03-06T01:59:49;7.13;;;4.43;;
10216;SDS011;5152;59.674;16.838;2024-03-06T02:02:17;6.70;;;3.70;;
10216;SDS011;5152;59.674;16.838;2024-03-06T02:04:43;6.13;;;4.30;;
10216;SDS011;5152;59.674;16.838;2024-03-06T02:07:10;8.00;;;4.63;;
10216;SDS011;5152;59.674;16.838;2024-03-06T02:09:38;4.80;;;3.50;;
10216;SDS011;5152;59.674;16.838;2024-03-06T02:12:05;9.50;;;4.23;;
10216;SDS011;5152;59.674;16.838;2024-03-06T02:14:33;7.73;;;5.17;;
10216;SDS011;5152;59.674;16.838;2024-03-06T02:17:01;7.87;;;4.60;;
10216;SDS011;5152;59.674;16.838;2024-03-06T02:19:37;6.90;;;5.00;;
10216;SDS011;5152;59.674;16.838;2024-03-06T02:22:06;8.23;;;5.00;;
10216;SDS011;5152;59.674;16.838;2024-03-06T02:24:33;7.67;;;4.20;;
10216;SDS011;5152;59.674;16.838;2024-03-06T02:27:00;6.03;;;4.30;;
10216;SDS011;5152;59.674;16.838;2024-03-06T02:29:27;8.03;;;4.23;;
10216;SDS011;5152;59.674;16.838;2024-03-06T02:31:53;10.07;;;5.40;;
10216;SDS011;5152;59.674;16.838;2024-03-06T02:34:20;6.60;;;3.73;;
10216;SDS011;5152;59.674;16.838;2024-03-06T02:36:47;12.43;;;5.10;;
10216;SDS011;5152;59.674;16.838;2024-03-06T02:39:15;8.77;;;5.17;;
10216;SDS011;5152;59.674;16.838;2024-03-06T02:41:42;10.47;;;5.70;;
10216;SDS011;5152;59.674;16.838;2024-03-06T02:44:09;6.77;;;4.20;;
10216;SDS011;5152;59.674;16.838;2024-03-06T02:46:36;7.07;;;4.50;;
10216;SDS011;5152;59.674;16.838;2024-03-06T02:49:03;7.13;;;3.70;;
10216;SDS011;5152;59.674;16.838;2024-03-06T02:51:31;6.40;;;4.47;;
10216;SDS011;5152;59.674;16.838;2024-03-06T02:53:57;8.13;;;4.07;;
10216;SDS011;5152;59.674;16.838;2024-03-06T02:56:26;4.50;;;3.00;;
10216;SDS011;5152;59.674;16.838;2024-03-06T02:58:52;7.80;;;4.30;;
10216;SDS011;5152;59.674;16.838;2024-03-06T03:01:20;10.47;;;4.70;;
10216;SDS011;5152;59.674;16.838;2024-03-06T03:03:47;9.83;;;5.30;;
10216;SDS011;5152;59.674;16.838;2024-03-06T03:06:14;10.93;;;4.83;;
10216;SDS011;5152;59.674;16.838;2024-03-06T03:08:40;6.73;;;3.13;;
10216;SDS011;5152;59.674;16.838;2024-03-06T03:11:07;7.37;;;5.00;;
10216;SDS011;5152;59.674;16.838;2024-03-06T03:13:36;6.00;;;3.53;;
10216;SDS011;5152;59.674;16.838;2024-03-06T03:16:03;6.63;;;4.57;;
10216;SDS011;5152;59.674;16.838;2024-03-06T03:18:31;7.07;;;4.07;;
10216;SDS011;5152;59.674;16.838;2024-03-06T03:20:57;6.43;;;4.27;;
10216;SDS011;5152;59.674;16.838;2024-03-06T03:23:24;7.87;;;4.50;;
10216;SDS011;5152;59.674;16.838;2024-03-06T03:25:51;7.97;;;5.10;;
10216;SDS011;5152;59.674;16.838;2024-03-06T03:28:18;7.17;;;4.30;;
10216;SDS011;5152;59.674;16.838;2024-03-06T03:30:46;7.80;;;4.23;;
10216;SDS011;5152;59.674;16.838;2024-03-06T03:33:13;8.30;;;5.57;;
10216;SDS011;5152;59.674;16.838;2024-03-06T03:35:40;7.77;;;4.33;;
10216;SDS011;5152;59.674;16.838;2024-03-06T03:38:06;8.93;;;4.90;;
10216;SDS011;5152;59.674;16.838;2024-03-06T03:40:33;11.57;;;4.33;;
10216;SDS011;5152;59.674;16.838;2024-03-06T03:43:00;5.37;;;3.10;;
10216;SDS011;5152;59.674;16.838;2024-03-06T03:45:31;6.30;;;4.30;;
10216;SDS011;5152;59.674;16.838;2024-03-06T03:48:01;4.73;;;3.00;;
10216;SDS011;5152;59.674;16.838;2024-03-06T03:50:28;9.63;;;4.60;;
10216;SDS011;5152;59.674;16.838;2024-03-06T03:52:55;6.17;;;3.60;;
10216;SDS011;5152;59.674;16.838;2024-03-06T03:55:25;11.30;;;4.37;;
10216;SDS011;5152;59.674;16.838;2024-03-06T03:57:52;10.50;;;4.30;;
10216;SDS011;5152;59.674;16.838;2024-03-06T04:00:19;17.10;;;5.67;;
10216;SDS011;5152;59.674;16.838;2024-03-06T04:02:47;11.47;;;6.80;;
10216;SDS011;5152;59.674;16.838;2024-03-06T04:05:15;7.63;;;3.70;;
10216;SDS011;5152;59.674;16.838;2024-03-06T04:07:42;11.57;;;4.77;;
10216;SDS011;5152;59.674;16.838;2024-03-06T04:10:09;8.40;;;4.60;;
10216;SDS011;5152;59.674;16.838;2024-03-06T04:12:36;5.30;;;3.17;;
10216;SDS011;5152;59.674;16.838;2024-03-06T04:15:05;7.70;;;4.27;;
10216;SDS011;5152;59.674;16.838;2024-03-06T04:17:34;4.57;;;3.03;;
10216;SDS011;5152;59.674;16.838;2024-03-06T04:20:01;6.50;;;3.17;;
10216;SDS011;5152;59.674;16.838;2024-03-06T04:22:30;11.73;;;4.07;;
10216;SDS011;5152;59.674;16.838;2024-03-06T04:24:57;7.27;;;3.20;;
10216;SDS011;5152;59.674;16.838;2024-03-06T04:27:24;3.50;;;2.90;;
10216;SDS011;5152;59.674;16.838;2024-03-06T04:29:51;4.97;;;3.37;;
10216;SDS011;5152;59.674;16.838;2024-03-06T04:32:18;5.23;;;3.20;;
10216;SDS011;5152;59.674;16.838;2024-03-06T04:34:45;8.80;;;3.63;;
10216;SDS011;5152;59.674;16.838;2024-03-06T04:37:12;5.13;;;2.80;;
10216;SDS011;5152;59.674;16.838;2024-03-06T04:39:41;5.40;;;3.00;;
10216;SDS011;5152;59.674;16.838;2024-03-06T04:42:07;3.70;;;2.63;;
10216;SDS011;5152;59.674;16.838;2024-03-06T04:44:34;4.43;;;2.70;;
10216;SDS011;5152;59.674;16.838;2024-03-06T04:47:01;5.37;;;3.37;;
10216;SDS011;5152;59.674;16.838;2024-03-06T04:49:28;3.67;;;2.90;;
10216;SDS011;5152;59.674;16.838;2024-03-06T04:51:59;6.00;;;3.30;;
10216;SDS011;5152;59.674;16.838;2024-03-06T04:54:26;5.47;;;3.33;;
10216;SDS011;5152;59.674;16.838;2024-03-06T04:56:54;6.80;;;3.23;;
10216;SDS011;5152;59.674;16.838;2024-03-06T04:59:21;4.43;;;3.40;;
10216;SDS011;5152;59.674;16.838;2024-03-06T05:01:48;14.63;;;6.63;;
10216;SDS011;5152;59.674;16.838;2024-03-06T05:04:15;9.17;;;4.37;;
10216;SDS011;5152;59.674;16.838;2024-03-06T05:06:40;17.50;;;7.03;;
10216;SDS011;5152;59.674;16.838;2024-03-06T05:09:07;9.63;;;4.93;;
10216;SDS011;5152;59.674;16.838;2024-03-06T05:11:36;8.53;;;2.73;;
10216;SDS011;5152;59.674;16.838;2024-03-06T05:14:05;6.33;;;3.87;;
10216;SDS011;5152;59.674;16.838;2024-03-06T05:16:32;6.83;;;3.40;;
10216;SDS011;5152;59.674;16.838;2024-03-06T05:18:59;6.07;;;3.13;;
10216;SDS011;5152;59.674;16.838;2024-03-06T05:21:26;8.60;;;3.47;;
10216;SDS011;5152;59.674;16.838;2024-03-06T05:23:53;5.43;;;3.07;;
10216;SDS011;5152;59.674;16.838;2024-03-06T05:26:20;6.33;;;2.70;;
10216;SDS011;5152;59.674;16.838;2024-03-06T05:28:47;5.67;;;2.30;;
10216;SDS011;5152;59.674;16.838;2024-03-06T05:31:17;7.27;;;2.77;;
10216;SDS011;5152;59.674;16.838;2024-03-06T05:33:46;6.47;;;2.87;;
10216;SDS011;5152;59.674;16.838;2024-03-06T05:36:13;5.17;;;2.83;;
10216;SDS011;5152;59.674;16.838;2024-03-06T05:38:40;5.83;;;2.70;;
10216;SDS011;5152;59.674;16.838;2024-03-06T05:41:07;14.47;;;2.30;;
10216;SDS011;5152;59.674;16.838;2024-03-06T05:43:35;2.37;;;1.93;;
10216;SDS011;5152;59.674;16.838;2024-03-06T05:46:02;6.37;;;2.90;;
10216;SDS011;5152;59.674;16.838;2024-03-06T05:48:31;7.37;;;2.83;;
10216;SDS011;5152;59.674;16.838;2024-03-06T05:50:58;7.00;;;3.33;;
10216;SDS011;5152;59.674;16.838;2024-03-06T05:53:25;9.87;;;2.90;;
10216;SDS011;5152;59.674;16.838;2024-03-06T05:55:52;3.33;;;2.60;;
10216;SDS011;5152;59.674;16.838;2024-03-06T05:58:19;4.80;;;2.50;;
10216;SDS011;5152;59.674;16.838;2024-03-06T06:00:47;7.93;;;2.87;;
10216;SDS011;5152;59.674;16.838;2024-03-06T06:03:14;14.20;;;2.27;;
10216;SDS011;5152;59.674;16.838;2024-03-06T06:05:42;8.03;;;2.37;;
10216;SDS011;5152;59.674;16.838;2024-03-06T06:08:09;11.30;;;2.50;;
10216;SDS011;5152;59.674;16.838;2024-03-06T06:10:36;4.00;;;2.50;;
10216;SDS011;5152;59.674;16.838;2024-03-06T06:13:03;9.07;;;2.73;;
10216;SDS011;5152;59.674;16.838;2024-03-06T06:15:30;15.43;;;3.03;;
10216;SDS011;5152;59.674;16.838;2024-03-06T06:17:57;7.43;;;2.73;;
10216;SDS011;5152;59.674;16.838;2024-03-06T06:20:24;5.90;;;2.50;;
10216;SDS011;5152;59.674;16.838;2024-03-06T06:22:53;9.63;;;2.53;;
10216;SDS011;5152;59.674;16.838;2024-03-06T06:25:20;4.60;;;2.27;;
10216;SDS011;5152;59.674;16.838;2024-03-06T06:27:47;10.93;;;3.33;;
10216;SDS011;5152;59.674;16.838;2024-03-06T06:30:14;4.73;;;2.77;;
10216;SDS011;5152;59.674;16.838;2024-03-06T06:32:42;20.97;;;3.87;;
10216;SDS011;5152;59.674;16.838;2024-03-06T06:35:09;11.33;;;3.07;;
10216;SDS011;5152;59.674;16.838;2024-03-06T06:37:38;3.83;;;2.57;;
10216;SDS011;5152;59.674;16.838;2024-03-06T06:40:07;3.17;;;2.20;;
10216;SDS011;5152;59.674;16.838;2024-03-06T06:42:37;10.70;;;2.40;;
10216;SDS011;5152;59.674;16.838;2024-03-06T06:45:04;4.40;;;2.43;;
10216;SDS011;5152;59.674;16.838;2024-03-06T06:47:32;8.83;;;2.57;;
10216;SDS011;5152;59.674;16.838;2024-03-06T06:49:59;5.37;;;1.97;;
10216;SDS011;5152;59.674;16.838;2024-03-06T06:52:30;6.37;;;2.33;;
10216;SDS011;5152;59.674;16.838;2024-03-06T06:54:58;4.97;;;2.83;;
10216;SDS011;5152;59.674;16.838;2024-03-06T06:57:26;3.53;;;2.40;;
10216;SDS011;5152;59.674;16.838;2024-03-06T06:59:53;6.67;;;2.27;;
10216;SDS011;5152;59.674;16.838;2024-03-06T07:02:20;3.60;;;2.23;;
10216;SDS011;5152;59.674;16.838;2024-03-06T07:04:48;4.53;;;2.40;;
10216;SDS011;5152;59.674;16.838;2024-03-06T07:07:14;8.63;;;2.57;;
10216;SDS011;5152;59.674;16.838;2024-03-06T07:09:42;9.87;;;3.10;;
10216;SDS011;5152;59.674;16.838;2024-03-06T07:12:09;12.63;;;3.13;;
10216;SDS011;5152;59.674;16.838;2024-03-06T07:14:37;2.83;;;2.20;;
10216;SDS011;5152;59.674;16.838;2024-03-06T07:17:04;3.67;;;2.20;;
10216;SDS011;5152;59.674;16.838;2024-03-06T07:19:31;3.33;;;2.30;;
10216;SDS011;5152;59.674;16.838;2024-03-06T07:21:57;3.47;;;2.20;;
10216;SDS011;5152;59.674;16.838;2024-03-06T07:24:24;7.93;;;2.30;;
10216;SDS011;5152;59.674;16.838;2024-03-06T07:26:51;19.13;;;3.37;;
10216;SDS011;5152;59.674;16.838;2024-03-06T07:29:18;4.70;;;2.27;;
10216;SDS011;5152;59.674;16.838;2024-03-06T07:31:46;9.30;;;3.03;;
10216;SDS011;5152;59.674;16.838;2024-03-06T07:34:13;4.60;;;1.90;;
10216;SDS011;5152;59.674;16.838;2024-03-06T07:36:40;3.87;;;2.10;;
10216;SDS011;5152;59.674;16.838;2024-03-06T07:39:07;4.17;;;2.57;;
10216;SDS011;5152;59.674;16.838;2024-03-06T07:41:34;9.03;;;2.50;;
10216;SDS011;5152;59.674;16.838;2024-03-06T07:44:01;4.57;;;2.60;;
10216;SDS011;5152;59.674;16.838;2024-03-06T07:46:28;7.57;;;1.97;;
10216;SDS011;5152;59.674;16.838;2024-03-06T07:48:56;4.33;;;2.10;;
10216;SDS011;5152;59.674;16.838;2024-03-06T07:51:24;2.30;;;1.80;;
10216;SDS011;5152;59.674;16.838;2024-03-06T07:53:50;6.20;;;2.53;;
10216;SDS011;5152;59.674;16.838;2024-03-06T07:56:17;5.53;;;2.43;;
10216;SDS011;5152;59.674;16.838;2024-03-06T07:58:44;4.03;;;2.40;;
10216;SDS011;5152;59.674;16.838;2024-03-06T08:01:11;11.60;;;2.90;;
10216;SDS011;5152;59.674;16.838;2024-03-06T08:03:38;3.47;;;2.37;;
10216;SDS011;5152;59.674;16.838;2024-03-06T08:06:09;3.23;;;2.10;;
10216;SDS011;5152;59.674;16.838;2024-03-06T08:08:36;3.90;;;2.00;;
10216;SDS011;5152;59.674;16.838;2024-03-06T08:11:03;2.70;;;2.00;;
10216;SDS011;5152;59.674;16.838;2024-03-06T08:13:30;6.10;;;2.17;;
10216;SDS011;5152;59.674;16.838;2024-03-06T08:15:57;3.03;;;2.13;;
10216;SDS011;5152;59.674;16.838;2024-03-06T08:18:24;11.27;;;3.60;;
10216;SDS011;5152;59.674;16.838;2024-03-06T08:20:52;5.57;;;2.33;;
10216;SDS011;5152;59.674;16.838;2024-03-06T08:23:20;3.20;;;2.10;;
10216;SDS011;5152;59.674;16.838;2024-03-06T08:25:48;3.37;;;2.40;;
10216;SDS011;5152;59.674;16.838;2024-03-06T08:28:15;5.60;;;2.23;;
10216;SDS011;5152;59.674;16.838;2024-03-06T08:30:42;6.73;;;2.53;;
10216;SDS011;5152;59.674;16.838;2024-03-06T08:33:09;5.30;;;2.90;;
10216;SDS011;5152;59.674;16.838;2024-03-06T08:35:36;2.83;;;2.30;;
10216;SDS011;5152;59.674;16.838;2024-03-06T08:38:03;4.07;;;2.20;;
10216;SDS011;5152;59.674;16.838;2024-03-06T08:40:32;3.80;;;2.33;;
10216;SDS011;5152;59.674;16.838;2024-03-06T08:43:00;3.70;;;2.07;;
10216;SDS011;5152;59.674;16.838;2024-03-06T08:45:27;5.13;;;1.97;;
10216;SDS011;5152;59.674;16.838;2024-03-06T08:47:54;2.67;;;1.70;;
10216;SDS011;5152;59.674;16.838;2024-03-06T08:50:21;2.43;;;1.90;;
10216;SDS011;5152;59.674;16.838;2024-03-06T08:52:48;4.70;;;2.00;;
10216;SDS011;5152;59.674;16.838;2024-03-06T08:55:16;4.87;;;1.90;;
10216;SDS011;5152;59.674;16.838;2024-03-06T08:57:45;2.40;;;1.40;;
10216;SDS011;5152;59.674;16.838;2024-03-06T09:00:12;2.80;;;1.77;;
10216;SDS011;5152;59.674;16.838;2024-03-06T09:02:40;1.73;;;1.63;;
10216;SDS011;5152;59.674;16.838;2024-03-06T09:05:07;2.43;;;2.10;;
10216;SDS011;5152;59.674;16.838;2024-03-06T09:07:35;2.13;;;1.73;;
10216;SDS011;5152;59.674;16.838;2024-03-06T09:10:05;34.87;;;4.37;;
10216;SDS011;5152;59.674;16.838;2024-03-06T09:12:33;28.37;;;4.07;;
10216;SDS011;5152;59.674;16.838;2024-03-06T09:15:02;4.50;;;1.70;;
10216;SDS011;5152;59.674;16.838;2024-03-06T09:17:29;5.07;;;1.90;;
10216;SDS011;5152;59.674;16.838;2024-03-06T09:19:56;3.70;;;2.13;;
10216;SDS011;5152;59.674;16.838;2024-03-06T09:22:23;6.77;;;2.40;;
10216;SDS011;5152;59.674;16.838;2024-03-06T09:24:50;4.70;;;1.97;;
10216;SDS011;5152;59.674;16.838;2024-03-06T09:27:17;3.73;;;2.13;;
10216;SDS011;5152;59.674;16.838;2024-03-06T09:29:44;6.43;;;1.93;;
10216;SDS011;5152;59.674;16.838;2024-03-06T09:32:13;3.13;;;1.90;;
10216;SDS011;5152;59.674;16.838;2024-03-06T09:34:41;3.43;;;2.63;;
10216;SDS011;5152;59.674;16.838;2024-03-06T09:37:09;4.53;;;2.80;;
10216;SDS011;5152;59.674;16.838;2024-03-06T09:39:36;4.70;;;2.23;;
10216;SDS011;5152;59.674;16.838;2024-03-06T09:42:03;4.80;;;2.40;;
10216;SDS011;5152;59.674;16.838;2024-03-06T09:44:30;2.00;;;1.80;;
10216;SDS011;5152;59.674;16.838;2024-03-06T09:46:57;2.47;;;1.70;;
10216;SDS011;5152;59.674;16.838;2024-03-06T09:49:27;3.80;;;1.90;;
10216;SDS011;5152;59.674;16.838;2024-03-06T09:51:54;2.93;;;2.10;;
10216;SDS011;5152;59.674;16.838;2024-03-06T09:54:23;5.40;;;2.20;;
10216;SDS011;5152;59.674;16.838;2024-03-06T09:56:52;4.10;;;2.37;;
10216;SDS011;5152;59.674;16.838;2024-03-06T09:59:20;4.63;;;2.03;;
10216;SDS011;5152;59.674;16.838;2024-03-06T10:01:53;4.50;;;2.43;;
10216;SDS011;5152;59.674;16.838;2024-03-06T10:04:20;12.17;;;2.80;;
10216;SDS011;5152;59.674;16.838;2024-03-06T10:06:50;2.40;;;1.93;;
10216;SDS011;5152;59.674;16.838;2024-03-06T10:09:20;4.07;;;1.90;;
10216;SDS011;5152;59.674;16.838;2024-03-06T10:11:48;3.43;;;1.73;;
10216;SDS011;5152;59.674;16.838;2024-03-06T10:14:15;3.93;;;1.73;;
10216;SDS011;5152;59.674;16.838;2024-03-06T10:16:51;2.13;;;1.67;;
10216;SDS011;5152;59.674;16.838;2024-03-06T10:19:19;2.13;;;1.80;;
10216;SDS011;5152;59.674;16.838;2024-03-06T10:21:50;4.80;;;1.53;;
10216;SDS011;5152;59.674;16.838;2024-03-06T10:24:19;2.47;;;1.80;;
10216;SDS011;5152;59.674;16.838;2024-03-06T10:26:46;2.63;;;1.60;;
10216;SDS011;5152;59.674;16.838;2024-03-06T10:29:16;1.80;;;1.33;;
10216;SDS011;5152;59.674;16.838;2024-03-06T10:31:48;14.47;;;2.20;;
10216;SDS011;5152;59.674;16.838;2024-03-06T10:34:16;7.17;;;1.73;;
10216;SDS011;5152;59.674;16.838;2024-03-06T10:36:43;3.47;;;1.60;;
10216;SDS011;5152;59.674;16.838;2024-03-06T10:39:12;4.50;;;1.53;;
10216;SDS011;5152;59.674;16.838;2024-03-06T10:41:40;4.03;;;1.60;;
10216;SDS011;5152;59.674;16.838;2024-03-06T10:44:08;2.83;;;1.53;;
10216;SDS011;5152;59.674;16.838;2024-03-06T10:46:40;2.73;;;1.20;;
10216;SDS011;5152;59.674;16.838;2024-03-06T10:49:11;4.93;;;1.77;;
10216;SDS011;5152;59.674;16.838;2024-03-06T10:51:40;5.40;;;1.60;;
10216;SDS011;5152;59.674;16.838;2024-03-06T10:54:08;2.30;;;1.50;;
10216;SDS011;5152;59.674;16.838;2024-03-06T10:56:39;3.63;;;1.30;;
10216;SDS011;5152;59.674;16.838;2024-03-06T10:59:08;2.40;;;1.53;;
10216;SDS011;5152;59.674;16.838;2024-03-06T11:01:37;2.53;;;1.23;;
10216;SDS011;5152;59.674;16.838;2024-03-06T11:04:05;3.40;;;1.77;;
10216;SDS011;5152;59.674;16.838;2024-03-06T11:06:33;4.40;;;1.37;;
10216;SDS011;5152;59.674;16.838;2024-03-06T11:09:00;3.30;;;1.40;;
10216;SDS011;5152;59.674;16.838;2024-03-06T11:11:27;2.47;;;1.50;;
10216;SDS011;5152;59.674;16.838;2024-03-06T11:13:56;3.80;;;1.37;;
10216;SDS011;5152;59.674;16.838;2024-03-06T11:16:27;1.40;;;1.30;;
10216;SDS011;5152;59.674;16.838;2024-03-06T11:19:04;19.03;;;2.30;;
10216;SDS011;5152;59.674;16.838;2024-03-06T11:21:32;3.80;;;1.50;;
10216;SDS011;5152;59.674;16.838;2024-03-06T11:24:15;2.73;;;1.67;;
10216;SDS011;5152;59.674;16.838;2024-03-06T11:26:48;1.57;;;1.07;;
10216;SDS011;5152;59.674;16.838;2024-03-06T11:29:18;1.80;;;1.30;;
10216;SDS011;5152;59.674;16.838;2024-03-06T11:32:00;2.30;;;1.50;;
10216;SDS011;5152;59.674;16.838;2024-03-06T11:34:28;3.87;;;1.20;;
10216;SDS011;5152;59.674;16.838;2024-03-06T11:36:56;3.93;;;1.60;;
10216;SDS011;5152;59.674;16.838;2024-03-06T11:39:24;3.00;;;1.53;;
10216;SDS011;5152;59.674;16.838;2024-03-06T11:41:53;1.67;;;1.00;;
10216;SDS011;5152;59.674;16.838;2024-03-06T11:44:22;2.30;;;1.50;;
10216;SDS011;5152;59.674;16.838;2024-03-06T11:46:50;3.23;;;1.30;;
10216;SDS011;5152;59.674;16.838;2024-03-06T11:49:24;7.53;;;1.57;;
10216;SDS011;5152;59.674;16.838;2024-03-06T11:51:54;11.33;;;1.77;;
10216;SDS011;5152;59.674;16.838;2024-03-06T11:54:22;13.20;;;1.97;;
10216;SDS011;5152;59.674;16.838;2024-03-06T11:56:51;4.63;;;1.70;;
10216;SDS011;5152;59.674;16.838;2024-03-06T11:59:22;3.10;;;1.43;;
10216;SDS011;5152;59.674;16.838;2024-03-06T12:01:49;7.60;;;1.50;;
10216;SDS011;5152;59.674;16.838;2024-03-06T12:04:17;2.17;;;1.27;;
10216;SDS011;5152;59.674;16.838;2024-03-06T12:06:45;2.70;;;1.30;;
10216;SDS011;5152;59.674;16.838;2024-03-06T12:09:12;2.37;;;1.60;;
10216;SDS011;5152;59.674;16.838;2024-03-06T12:11:38;2.77;;;1.50;;
10216;SDS011;5152;59.674;16.838;2024-03-06T12:14:06;2.70;;;1.70;;
10216;SDS011;5152;59.674;16.838;2024-03-06T12:16:36;2.80;;;1.70;;
10216;SDS011;5152;59.674;16.838;2024-03-06T12:19:03;2.03;;;1.50;;
10216;SDS011;5152;59.674;16.838;2024-03-06T12:21:31;2.00;;;1.33;;
10216;SDS011;5152;59.674;16.838;2024-03-06T12:24:04;1.83;;;1.20;;
10216;SDS011;5152;59.674;16.838;2024-03-06T12:26:31;4.00;;;2.03;;
10216;SDS011;5152;59.674;16.838;2024-03-06T12:29:07;0.87;;;0.70;;
10216;SDS011;5152;59.674;16.838;2024-03-06T12:31:36;4.43;;;1.73;;
10216;SDS011;5152;59.674;16.838;2024-03-06T12:34:05;0.60;;;0.60;;
10216;SDS011;5152;59.674;16.838;2024-03-06T12:36:32;2.17;;;1.30;;
10216;SDS011;5152;59.674;16.838;2024-03-06T12:38:59;4.00;;;1.40;;
10216;SDS011;5152;59.674;16.838;2024-03-06T12:41:27;6.57;;;1.50;;
10216;SDS011;5152;59.674;16.838;2024-03-06T12:43:55;6.97;;;2.33;;
10216;SDS011;5152;59.674;16.838;2024-03-06T12:46:22;2.27;;;1.40;;
10216;SDS011;5152;59.674;16.838;2024-03-06T12:48:53;2.93;;;1.50;;
10216;SDS011;5152;59.674;16.838;2024-03-06T12:51:20;4.87;;;1.73;;
10216;SDS011;5152;59.674;16.838;2024-03-06T12:53:47;2.83;;;1.10;;
10216;SDS011;5152;59.674;16.838;2024-03-06T12:56:14;5.20;;;2.27;;
10216;SDS011;5152;59.674;16.838;2024-03-06T12:58:41;2.40;;;1.60;;
10216;SDS011;5152;59.674;16.838;2024-03-06T13:01:08;2.70;;;1.37;;
10216;SDS011;5152;59.674;16.838;2024-03-06T13:03:35;6.60;;;1.90;;
10216;SDS011;5152;59.674;16.838;2024-03-06T13:06:04;3.43;;;1.50;;
10216;SDS011;5152;59.674;16.838;2024-03-06T13:08:31;8.87;;;2.20;;
10216;SDS011;5152;59.674;16.838;2024-03-06T13:10:58;1.23;;;0.70;;
10216;SDS011;5152;59.674;16.838;2024-03-06T13:13:25;2.50;;;1.50;;
10216;SDS011;5152;59.674;16.838;2024-03-06T13:15:54;3.40;;;1.20;;
10216;SDS011;5152;59.674;16.838;2024-03-06T13:18:21;1.10;;;1.00;;
10216;SDS011;5152;59.674;16.838;2024-03-06T13:20:48;1.10;;;1.00;;
10216;SDS011;5152;59.674;16.838;2024-03-06T13:23:16;2.63;;;1.10;;
10216;SDS011;5152;59.674;16.838;2024-03-06T13:25:43;7.53;;;4.17;;
10216;SDS011;5152;59.674;16.838;2024-03-06T13:28:11;0.90;;;0.80;;
10216;SDS011;5152;59.674;16.838;2024-03-06T13:30:38;3.80;;;1.77;;
10216;SDS011;5152;59.674;16.838;2024-03-06T13:33:05;3.47;;;1.70;;
10216;SDS011;5152;59.674;16.838;2024-03-06T13:35:32;1.17;;;0.67;;
10216;SDS011;5152;59.674;16.838;2024-03-06T13:37:59;3.07;;;1.23;;
10216;SDS011;5152;59.674;16.838;2024-03-06T13:40:29;0.70;;;0.70;;
10216;SDS011;5152;59.674;16.838;2024-03-06T13:42:56;1.17;;;0.70;;
10216;SDS011;5152;59.674;16.838;2024-03-06T13:45:23;3.90;;;1.33;;
10216;SDS011;5152;59.674;16.838;2024-03-06T13:47:50;0.80;;;0.80;;
10216;SDS011;5152;59.674;16.838;2024-03-06T13:50:17;5.23;;;1.30;;
10216;SDS011;5152;59.674;16.838;2024-03-06T13:52:44;1.30;;;1.20;;
10216;SDS011;5152;59.674;16.838;2024-03-06T13:55:11;4.67;;;1.10;;
10216;SDS011;5152;59.674;16.838;2024-03-06T13:57:40;8.43;;;1.83;;
10216;SDS011;5152;59.674;16.838;2024-03-06T14:00:08;1.53;;;1.00;;
10216;SDS011;5152;59.674;16.838;2024-03-06T14:02:42;2.17;;;0.90;;
10216;SDS011;5152;59.674;16.838;2024-03-06T14:05:09;0.80;;;0.80;;
10216;SDS011;5152;59.674;16.838;2024-03-06T14:07:36;0.90;;;0.77;;
10216;SDS011;5152;59.674;16.838;2024-03-06T14:10:05;0.80;;;0.77;;
10216;SDS011;5152;59.674;16.838;2024-03-06T14:12:33;2.27;;;0.80;;
10216;SDS011;5152;59.674;16.838;2024-03-06T14:15:02;3.43;;;1.20;;
10216;SDS011;5152;59.674;16.838;2024-03-06T14:17:29;3.17;;;1.83;;
10216;SDS011;5152;59.674;16.838;2024-03-06T14:19:56;3.33;;;1.73;;
10216;SDS011;5152;59.674;16.838;2024-03-06T14:22:23;5.20;;;1.00;;
10216;SDS011;5152;59.674;16.838;2024-03-06T14:24:50;10.87;;;2.77;;
10216;SDS011;5152;59.674;16.838;2024-03-06T14:27:17;12.80;;;2.53;;
10216;SDS011;5152;59.674;16.838;2024-03-06T14:29:43;7.97;;;2.20;;
10216;SDS011;5152;59.674;16.838;2024-03-06T14:32:12;7.80;;;1.70;;
10216;SDS011;5152;59.674;16.838;2024-03-06T14:34:39;8.20;;;1.77;;
10216;SDS011;5152;59.674;16.838;2024-03-06T14:37:08;4.43;;;1.77;;
10216;SDS011;5152;59.674;16.838;2024-03-06T14:39:35;2.90;;;1.40;;
10216;SDS011;5152;59.674;16.838;2024-03-06T14:42:02;10.97;;;1.93;;
10216;SDS011;5152;59.674;16.838;2024-03-06T14:44:29;11.10;;;4.90;;
10216;SDS011;5152;59.674;16.838;2024-03-06T14:46:57;24.30;;;9.70;;
10216;SDS011;5152;59.674;16.838;2024-03-06T14:49:25;8.23;;;2.40;;